sensor_id;sensor_type;location;lat;lon;timestamp;pressure;altitude;pressure_sealevel;temperature;humidity
74633;BME280;63139;52.018;8.552;2023-04-07T00:01:57;100433.72;;;8.17;71.50
74633;BME280;63139;52.018;8.552;2023-04-07T00:04:26;100441.00;;;8.15;71.83
74633;BME280;63139;52.018;8.552;2023-04-07T00:06:54;100435.88;;;8.13;72.39
74633;BME280;63139;52.018;8.552;2023-04-07T00:09:22;100435.03;;;8.13;71.98
74633;BME280;63139;52.018;8.552;2023-04-07T00:11:50;100436.00;;;8.12;72.11
74633;BME280;63139;52.018;8.552;2023-04-07T00:14:18;100429.22;;;8.09;71.77
74633;BME280;63139;52.018;8.552;2023-04-07T00:16:45;100426.09;;;8.06;72.82
74633;BME280;63139;52.018;8.552;2023-04-07T00:19:13;100433.16;;;8.05;71.95
74633;BME280;63139;52.018;8.552;2023-04-07T00:21:42;100430.81;;;8.02;72.47
74633;BME280;63139;52.018;8.552;2023-04-07T00:24:10;100430.81;;;8.02;72.34
74633;BME280;63139;52.018;8.552;2023-04-07T00:26:43;100428.50;;;7.99;72.95
74633;BME280;63139;52.018;8.552;2023-04-07T00:29:11;100427.00;;;7.97;73.20
74633;BME280;63139;52.018;8.552;2023-04-07T00:31:39;100424.34;;;7.97;72.53
74633;BME280;63139;52.018;8.552;2023-04-07T00:34:07;100421.03;;;7.95;73.61
74633;BME280;63139;52.018;8.552;2023-04-07T00:36:35;100413.13;;;7.95;73.20
74633;BME280;63139;52.018;8.552;2023-04-07T00:39:04;100421.03;;;7.95;73.33
74633;BME280;63139;52.018;8.552;2023-04-07T00:41:33;100422.84;;;7.94;73.25
74633;BME280;63139;52.018;8.552;2023-04-07T00:44:00;100417.06;;;7.91;73.61
74633;BME280;63139;52.018;8.552;2023-04-07T00:46:28;100420.53;;;7.91;73.97
74633;BME280;63139;52.018;8.552;2023-04-07T00:48:56;100419.69;;;7.91;73.59
74633;BME280;63139;52.018;8.552;2023-04-07T00:51:25;100415.41;;;7.90;74.22
74633;BME280;63139;52.018;8.552;2023-04-07T00:53:53;100413.59;;;7.90;73.54
74633;BME280;63139;52.018;8.552;2023-04-07T00:56:24;100406.81;;;7.88;74.46
74633;BME280;63139;52.018;8.552;2023-04-07T00:58:52;100402.69;;;7.85;74.20
74633;BME280;63139;52.018;8.552;2023-04-07T01:01:22;100403.66;;;7.84;74.59
74633;BME280;63139;52.018;8.552;2023-04-07T01:03:54;100404.50;;;7.85;74.21
74633;BME280;63139;52.018;8.552;2023-04-07T01:06:27;100405.31;;;7.85;74.22
74633;BME280;63139;52.018;8.552;2023-04-07T01:09:01;100399.22;;;7.85;74.46
74633;BME280;63139;52.018;8.552;2023-04-07T01:11:38;100395.59;;;7.86;73.97
74633;BME280;63139;52.018;8.552;2023-04-07T01:14:15;100396.41;;;7.86;73.65
74633;BME280;63139;52.018;8.552;2023-04-07T01:16:53;100385.88;;;7.86;74.39
74633;BME280;63139;52.018;8.552;2023-04-07T01:19:36;100393.94;;;7.85;73.90
74633;BME280;63139;52.018;8.552;2023-04-07T01:22:09;100392.16;;;7.85;73.89
74633;BME280;63139;52.018;8.552;2023-04-07T01:24:56;100387.03;;;7.84;74.29
74633;BME280;63139;52.018;8.552;2023-04-07T01:27:38;100389.81;;;7.82;74.04
74633;BME280;63139;52.018;8.552;2023-04-07T01:30:10;100386.88;;;7.85;73.35
74633;BME280;63139;52.018;8.552;2023-04-07T01:32:40;100378.28;;;7.83;73.79
74633;BME280;63139;52.018;8.552;2023-04-07T01:35:12;100384.38;;;7.84;73.58
74633;BME280;63139;52.018;8.552;2023-04-07T01:37:40;100373.69;;;7.85;73.51
74633;BME280;63139;52.018;8.552;2023-04-07T01:40:12;100373.53;;;7.87;73.40
74633;BME280;63139;52.018;8.552;2023-04-07T01:42:41;100380.94;;;7.83;73.35
74633;BME280;63139;52.018;8.552;2023-04-07T01:45:10;100380.78;;;7.85;72.93
74633;BME280;63139;52.018;8.552;2023-04-07T01:47:39;100374.34;;;7.87;73.10
74633;BME280;63139;52.018;8.552;2023-04-07T01:50:08;100377.97;;;7.86;73.63
74633;BME280;63139;52.018;8.552;2023-04-07T01:52:37;100381.28;;;7.88;73.58
74633;BME280;63139;52.018;8.552;2023-04-07T01:55:07;100374.50;;;7.86;73.59
74633;BME280;63139;52.018;8.552;2023-04-07T01:57:41;100370.25;;;7.85;73.32
74633;BME280;63139;52.018;8.552;2023-04-07T02:00:17;100377.31;;;7.84;74.07
74633;BME280;63139;52.018;8.552;2023-04-07T02:02:54;100371.06;;;7.85;73.85
74633;BME280;63139;52.018;8.552;2023-04-07T02:05:26;100377.13;;;7.86;73.92
74633;BME280;63139;52.018;8.552;2023-04-07T02:08:01;100372.03;;;7.84;74.57
74633;BME280;63139;52.018;8.552;2023-04-07T02:10:34;100371.22;;;7.84;73.73
74633;BME280;63139;52.018;8.552;2023-04-07T02:13:05;100370.25;;;7.85;74.08
74633;BME280;63139;52.018;8.552;2023-04-07T02:15:36;100375.66;;;7.83;74.07
74633;BME280;63139;52.018;8.552;2023-04-07T02:18:06;100361.78;;;7.81;74.89
74633;BME280;63139;52.018;8.552;2023-04-07T02:20:37;100381.22;;;7.80;74.49
74633;BME280;63139;52.018;8.552;2023-04-07T02:23:06;100366.69;;;7.76;75.15
74633;BME280;63139;52.018;8.552;2023-04-07T02:25:35;100371.16;;;7.75;74.94
74633;BME280;63139;52.018;8.552;2023-04-07T02:28:04;100371.16;;;7.75;74.68
74633;BME280;63139;52.018;8.552;2023-04-07T02:30:33;100367.97;;;7.72;74.98
74633;BME280;63139;52.018;8.552;2023-04-07T02:33:03;100370.47;;;7.73;75.38
74633;BME280;63139;52.018;8.552;2023-04-07T02:35:31;100370.94;;;7.69;76.24
74633;BME280;63139;52.018;8.552;2023-04-07T02:38:00;100376.50;;;7.66;76.31
74633;BME280;63139;52.018;8.552;2023-04-07T02:40:28;100380.94;;;7.65;76.07
74633;BME280;63139;52.018;8.552;2023-04-07T02:42:56;100376.81;;;7.63;75.93
74633;BME280;63139;52.018;8.552;2023-04-07T02:45:24;100392.06;;;7.59;76.37
74633;BME280;63139;52.018;8.552;2023-04-07T02:47:52;100383.81;;;7.54;77.35
74633;BME280;63139;52.018;8.552;2023-04-07T02:50:21;100384.25;;;7.50;77.58
74633;BME280;63139;52.018;8.552;2023-04-07T02:52:49;100383.41;;;7.49;77.41
74633;BME280;63139;52.018;8.552;2023-04-07T02:55:16;100389.00;;;7.46;78.26
74633;BME280;63139;52.018;8.552;2023-04-07T02:57:44;100382.91;;;7.46;77.41
74633;BME280;63139;52.018;8.552;2023-04-07T03:00:29;100381.94;;;7.47;77.65
74633;BME280;63139;52.018;8.552;2023-04-07T03:03:08;100386.50;;;7.45;77.70
74633;BME280;63139;52.018;8.552;2023-04-07T03:05:40;100383.72;;;7.46;78.46
74633;BME280;63139;52.018;8.552;2023-04-07T03:08:09;100377.94;;;7.43;78.74
74633;BME280;63139;52.018;8.552;2023-04-07T03:10:39;100378.91;;;7.41;78.99
74633;BME280;63139;52.018;8.552;2023-04-07T03:13:07;100382.53;;;7.40;78.64
74633;BME280;63139;52.018;8.552;2023-04-07T03:15:36;100382.00;;;7.37;78.99
74633;BME280;63139;52.018;8.552;2023-04-07T03:18:04;100374.91;;;7.37;78.70
74633;BME280;63139;52.018;8.552;2023-04-07T03:20:33;100380.34;;;7.36;79.70
74633;BME280;63139;52.018;8.552;2023-04-07T03:23:08;100382.13;;;7.35;79.44
74633;BME280;63139;52.018;8.552;2023-04-07T03:25:36;100378.00;;;7.33;79.63
74633;BME280;63139;52.018;8.552;2023-04-07T03:28:05;100379.81;;;7.32;79.94
74633;BME280;63139;52.018;8.552;2023-04-07T03:30:36;100374.69;;;7.31;80.08
74633;BME280;63139;52.018;8.552;2023-04-07T03:33:04;100373.88;;;7.30;79.93
74633;BME280;63139;52.018;8.552;2023-04-07T03:35:32;100379.81;;;7.32;79.60
74633;BME280;63139;52.018;8.552;2023-04-07T03:38:00;100372.22;;;7.29;80.52
74633;BME280;63139;52.018;8.552;2023-04-07T03:40:29;100371.38;;;7.29;80.17
74633;BME280;63139;52.018;8.552;2023-04-07T03:42:59;100375.66;;;7.30;79.54
74633;BME280;63139;52.018;8.552;2023-04-07T03:45:27;100372.34;;;7.28;79.89
74633;BME280;63139;52.018;8.552;2023-04-07T03:47:55;100386.50;;;7.27;80.00
74633;BME280;63139;52.018;8.552;2023-04-07T03:50:23;100381.41;;;7.25;79.90
74633;BME280;63139;52.018;8.552;2023-04-07T03:53:12;100371.69;;;7.26;80.28
74633;BME280;63139;52.018;8.552;2023-04-07T03:55:43;100378.75;;;7.25;80.92
74633;BME280;63139;52.018;8.552;2023-04-07T03:58:19;100380.72;;;7.23;80.95
74633;BME280;63139;52.018;8.552;2023-04-07T04:00:48;100377.25;;;7.23;80.77
74633;BME280;63139;52.018;8.552;2023-04-07T04:03:16;100385.16;;;7.23;81.33
74633;BME280;63139;52.018;8.552;2023-04-07T04:06:02;100377.38;;;7.21;80.94
74633;BME280;63139;52.018;8.552;2023-04-07T04:08:31;100382.78;;;7.20;81.35
74633;BME280;63139;52.018;8.552;2023-04-07T04:11:00;100383.78;;;7.19;81.64
74633;BME280;63139;52.018;8.552;2023-04-07T04:13:34;100386.13;;;7.22;81.51
74633;BME280;63139;52.018;8.552;2023-04-07T04:16:04;100390.03;;;7.18;81.63
74633;BME280;63139;52.018;8.552;2023-04-07T04:18:34;100386.41;;;7.19;81.95
74633;BME280;63139;52.018;8.552;2023-04-07T04:21:03;100388.22;;;7.18;81.68
74633;BME280;63139;52.018;8.552;2023-04-07T04:23:31;100394.31;;;7.19;80.97
74633;BME280;63139;52.018;8.552;2023-04-07T04:26:00;100393.31;;;7.20;81.55
74633;BME280;63139;52.018;8.552;2023-04-07T04:28:31;100388.06;;;7.20;81.34
74633;BME280;63139;52.018;8.552;2023-04-07T04:31:00;100393.31;;;7.20;81.46
74633;BME280;63139;52.018;8.552;2023-04-07T04:33:30;100390.69;;;7.20;80.82
74633;BME280;63139;52.018;8.552;2023-04-07T04:35:58;100389.03;;;7.19;81.35
74633;BME280;63139;52.018;8.552;2023-04-07T04:38:26;100390.88;;;7.18;81.46
74633;BME280;63139;52.018;8.552;2023-04-07T04:41:05;100398.78;;;7.18;81.50
74633;BME280;63139;52.018;8.552;2023-04-07T04:43:33;100393.50;;;7.18;81.20
74633;BME280;63139;52.018;8.552;2023-04-07T04:46:02;100399.56;;;7.19;81.41
74633;BME280;63139;52.018;8.552;2023-04-07T04:48:35;100404.53;;;7.22;81.15
74633;BME280;63139;52.018;8.552;2023-04-07T04:51:06;100404.41;;;7.23;80.94
74633;BME280;63139;52.018;8.552;2023-04-07T04:53:35;100405.91;;;7.26;81.68
74633;BME280;63139;52.018;8.552;2023-04-07T04:56:06;100401.31;;;7.28;81.42
74633;BME280;63139;52.018;8.552;2023-04-07T04:58:44;100406.16;;;7.32;80.97
74633;BME280;63139;52.018;8.552;2023-04-07T05:01:34;100410.97;;;7.37;81.17
74633;BME280;63139;52.018;8.552;2023-04-07T05:04:08;100404.41;;;7.41;80.93
74633;BME280;63139;52.018;8.552;2023-04-07T05:06:41;100413.69;;;7.45;80.73
74633;BME280;63139;52.018;8.552;2023-04-07T05:09:11;100409.38;;;7.44;81.02
74633;BME280;63139;52.018;8.552;2023-04-07T05:11:44;100414.19;;;7.49;79.99
74633;BME280;63139;52.018;8.552;2023-04-07T05:14:12;100411.13;;;7.53;80.71
74633;BME280;63139;52.018;8.552;2023-04-07T05:16:45;100411.63;;;7.57;80.66
74633;BME280;63139;52.018;8.552;2023-04-07T05:19:18;100416.63;;;7.60;80.40
74633;BME280;63139;52.018;8.552;2023-04-07T05:21:48;100417.44;;;7.60;80.27
74633;BME280;63139;52.018;8.552;2023-04-07T05:24:18;100416.34;;;7.63;80.35
74633;BME280;63139;52.018;8.552;2023-04-07T05:26:52;100416.47;;;7.61;80.08
74633;BME280;63139;52.018;8.552;2023-04-07T05:29:20;100421.75;;;7.61;80.01
74633;BME280;63139;52.018;8.552;2023-04-07T05:31:48;100425.03;;;7.63;80.39
74633;BME280;63139;52.018;8.552;2023-04-07T05:34:18;100429.34;;;7.64;80.07
74633;BME280;63139;52.018;8.552;2023-04-07T05:36:51;100432.78;;;7.65;80.58
74633;BME280;63139;52.018;8.552;2023-04-07T05:39:20;100421.44;;;7.64;80.43
74633;BME280;63139;52.018;8.552;2023-04-07T05:41:52;100425.44;;;7.68;80.16
74633;BME280;63139;52.018;8.552;2023-04-07T05:44:23;100430.38;;;7.71;80.05
74633;BME280;63139;52.018;8.552;2023-04-07T05:46:52;100434.38;;;7.75;80.13
74633;BME280;63139;52.018;8.552;2023-04-07T05:49:21;100420.09;;;7.78;79.93
74633;BME280;63139;52.018;8.552;2023-04-07T05:51:58;100432.66;;;7.84;79.59
74633;BME280;63139;52.018;8.552;2023-04-07T05:54:26;100438.44;;;7.88;79.46
74633;BME280;63139;52.018;8.552;2023-04-07T05:56:56;100440.94;;;7.89;79.00
74633;BME280;63139;52.018;8.552;2023-04-07T05:59:26;100445.91;;;7.92;78.98
74633;BME280;63139;52.018;8.552;2023-04-07T06:01:54;100437.53;;;7.97;79.23
74633;BME280;63139;52.018;8.552;2023-04-07T06:04:22;100443.16;;;8.02;79.20
74633;BME280;63139;52.018;8.552;2023-04-07T06:06:50;100447.19;;;8.06;79.21
74633;BME280;63139;52.018;8.552;2023-04-07T06:09:20;100442.25;;;8.11;79.11
74633;BME280;63139;52.018;8.552;2023-04-07T06:11:48;100453.63;;;8.11;79.30
74633;BME280;63139;52.018;8.552;2023-04-07T06:14:18;100460.25;;;8.15;78.83
74633;BME280;63139;52.018;8.552;2023-04-07T06:16:46;100456.50;;;8.18;78.49
74633;BME280;63139;52.018;8.552;2023-04-07T06:19:14;100452.72;;;8.21;79.09
74633;BME280;63139;52.018;8.552;2023-04-07T06:21:42;100458.75;;;8.31;78.50
74633;BME280;63139;52.018;8.552;2023-04-07T06:24:09;100456.69;;;8.42;78.21
74633;BME280;63139;52.018;8.552;2023-04-07T06:26:38;100460.72;;;8.54;77.90
74633;BME280;63139;52.018;8.552;2023-04-07T06:29:06;100462.78;;;8.69;77.70
74633;BME280;63139;52.018;8.552;2023-04-07T06:31:36;100466.50;;;8.84;77.16
74633;BME280;63139;52.018;8.552;2023-04-07T06:34:04;100466.09;;;8.97;77.32
74633;BME280;63139;52.018;8.552;2023-04-07T06:36:32;100479.31;;;9.05;77.27
74633;BME280;63139;52.018;8.552;2023-04-07T06:39:00;100477.38;;;9.15;77.06
74633;BME280;63139;52.018;8.552;2023-04-07T06:41:28;100473.59;;;9.17;76.50
74633;BME280;63139;52.018;8.552;2023-04-07T06:43:57;100478.25;;;9.23;76.84
74633;BME280;63139;52.018;8.552;2023-04-07T06:46:25;100475.94;;;9.28;76.46
74633;BME280;63139;52.018;8.552;2023-04-07T06:48:54;100479.75;;;9.34;76.37
74633;BME280;63139;52.018;8.552;2023-04-07T06:51:22;100471.03;;;9.42;75.65
74633;BME280;63139;52.018;8.552;2023-04-07T06:53:49;100477.16;;;9.50;75.01
74633;BME280;63139;52.018;8.552;2023-04-07T06:56:17;100479.00;;;9.58;74.97
74633;BME280;63139;52.018;8.552;2023-04-07T06:58:45;100486.47;;;9.62;74.74
74633;BME280;63139;52.018;8.552;2023-04-07T07:01:13;100490.13;;;9.69;74.94
74633;BME280;63139;52.018;8.552;2023-04-07T07:03:41;100491.09;;;9.68;74.38
74633;BME280;63139;52.018;8.552;2023-04-07T07:06:10;100494.59;;;9.77;74.14
74633;BME280;63139;52.018;8.552;2023-04-07T07:08:38;100490.78;;;9.88;73.94
74633;BME280;63139;52.018;8.552;2023-04-07T07:11:06;100490.97;;;9.94;73.31
74633;BME280;63139;52.018;8.552;2023-04-07T07:13:34;100490.50;;;9.99;73.11
74633;BME280;63139;52.018;8.552;2023-04-07T07:16:01;100494.44;;;10.03;72.65
74633;BME280;63139;52.018;8.552;2023-04-07T07:18:29;100499.56;;;10.04;72.51
74633;BME280;63139;52.018;8.552;2023-04-07T07:20:57;100501.72;;;10.09;72.45
74633;BME280;63139;52.018;8.552;2023-04-07T07:23:26;100501.25;;;10.05;72.06
74633;BME280;63139;52.018;8.552;2023-04-07T07:25:54;100503.72;;;10.15;71.54
74633;BME280;63139;52.018;8.552;2023-04-07T07:28:22;100504.09;;;10.28;71.37
74633;BME280;63139;52.018;8.552;2023-04-07T07:30:50;100519.13;;;10.44;71.08
74633;BME280;63139;52.018;8.552;2023-04-07T07:33:17;100509.69;;;10.58;70.72
74633;BME280;63139;52.018;8.552;2023-04-07T07:35:45;100515.13;;;10.72;70.18
74633;BME280;63139;52.018;8.552;2023-04-07T07:38:13;100525.72;;;10.80;70.05
74633;BME280;63139;52.018;8.552;2023-04-07T07:40:42;100512.78;;;10.85;69.12
74633;BME280;63139;52.018;8.552;2023-04-07T07:43:10;100519.34;;;11.06;68.52
74633;BME280;63139;52.018;8.552;2023-04-07T07:45:38;100532.09;;;11.18;67.38
74633;BME280;63139;52.018;8.552;2023-04-07T07:48:05;100521.72;;;11.40;67.17
74633;BME280;63139;52.018;8.552;2023-04-07T07:50:33;100525.22;;;11.40;66.03
74633;BME280;63139;52.018;8.552;2023-04-07T07:53:01;100522.28;;;11.58;66.70
74633;BME280;63139;52.018;8.552;2023-04-07T07:55:29;100521.75;;;11.71;66.52
74633;BME280;63139;52.018;8.552;2023-04-07T07:57:58;100524.56;;;11.69;66.17
74633;BME280;63139;52.018;8.552;2023-04-07T08:00:26;100522.75;;;11.70;65.58
74633;BME280;63139;52.018;8.552;2023-04-07T08:02:54;100532.16;;;11.72;66.35
74633;BME280;63139;52.018;8.552;2023-04-07T08:05:22;100530.50;;;11.79;66.58
74633;BME280;63139;52.018;8.552;2023-04-07T08:07:50;100533.81;;;11.81;65.71
74633;BME280;63139;52.018;8.552;2023-04-07T08:10:20;100531.81;;;11.83;65.16
74633;BME280;63139;52.018;8.552;2023-04-07T08:12:50;100532.63;;;11.84;65.62
74633;BME280;63139;52.018;8.552;2023-04-07T08:15:19;100535.41;;;11.90;64.45
74633;BME280;63139;52.018;8.552;2023-04-07T08:17:47;100536.59;;;12.11;64.64
74633;BME280;63139;52.018;8.552;2023-04-07T08:20:15;100539.97;;;12.27;63.76
74633;BME280;63139;52.018;8.552;2023-04-07T08:22:42;100542.09;;;12.32;63.56
74633;BME280;63139;52.018;8.552;2023-04-07T08:25:10;100542.63;;;12.27;62.62
74633;BME280;63139;52.018;8.552;2023-04-07T08:27:38;100539.53;;;12.38;62.94
74633;BME280;63139;52.018;8.552;2023-04-07T08:30:06;100544.78;;;12.47;62.61
74633;BME280;63139;52.018;8.552;2023-04-07T08:32:36;100550.63;;;12.65;62.74
74633;BME280;63139;52.018;8.552;2023-04-07T08:35:05;100545.22;;;12.73;61.85
74633;BME280;63139;52.018;8.552;2023-04-07T08:37:33;100547.00;;;12.80;60.30
74633;BME280;63139;52.018;8.552;2023-04-07T08:40:02;100551.94;;;12.98;60.87
74633;BME280;63139;52.018;8.552;2023-04-07T08:42:32;100553.25;;;13.02;61.15
74633;BME280;63139;52.018;8.552;2023-04-07T08:45:02;100555.63;;;13.12;60.48
74633;BME280;63139;52.018;8.552;2023-04-07T08:47:31;100559.44;;;13.17;59.64
74633;BME280;63139;52.018;8.552;2023-04-07T08:50:02;100560.44;;;13.16;59.87
74633;BME280;63139;52.018;8.552;2023-04-07T08:52:33;100558.75;;;13.01;59.34
74633;BME280;63139;52.018;8.552;2023-04-07T08:55:03;100560.31;;;12.95;59.12
74633;BME280;63139;52.018;8.552;2023-04-07T08:57:32;100565.28;;;12.75;59.52
74633;BME280;63139;52.018;8.552;2023-04-07T09:00:01;100562.84;;;12.74;58.47
74633;BME280;63139;52.018;8.552;2023-04-07T09:02:32;100567.84;;;12.69;59.79
74633;BME280;63139;52.018;8.552;2023-04-07T09:05:04;100569.97;;;12.73;59.14
74633;BME280;63139;52.018;8.552;2023-04-07T09:07:33;100569.00;;;12.89;57.31
74633;BME280;63139;52.018;8.552;2023-04-07T09:10:01;100559.19;;;13.04;58.82
74633;BME280;63139;52.018;8.552;2023-04-07T09:12:29;100572.53;;;13.19;57.74
74633;BME280;63139;52.018;8.552;2023-04-07T09:14:57;100575.00;;;13.35;57.50
74633;BME280;63139;52.018;8.552;2023-04-07T09:17:25;100569.06;;;13.48;56.14
74633;BME280;63139;52.018;8.552;2023-04-07T09:19:55;100571.63;;;13.56;56.66
74633;BME280;63139;52.018;8.552;2023-04-07T09:22:38;100580.13;;;13.66;54.82
74633;BME280;63139;52.018;8.552;2023-04-07T09:25:12;100576.41;;;13.96;55.42
74633;BME280;63139;52.018;8.552;2023-04-07T09:27:53;100582.41;;;13.84;54.04
74633;BME280;63139;52.018;8.552;2023-04-07T09:30:21;100580.72;;;13.97;55.27
74633;BME280;63139;52.018;8.552;2023-04-07T09:32:49;100581.25;;;14.08;55.20
74633;BME280;63139;52.018;8.552;2023-04-07T09:35:17;100579.16;;;14.24;55.24
74633;BME280;63139;52.018;8.552;2023-04-07T09:38:00;100574.34;;;14.13;53.00
74633;BME280;63139;52.018;8.552;2023-04-07T09:40:28;100577.06;;;14.20;55.24
74633;BME280;63139;52.018;8.552;2023-04-07T09:42:56;100574.28;;;14.07;54.51
74633;BME280;63139;52.018;8.552;2023-04-07T09:45:25;100574.69;;;14.10;53.99
74633;BME280;63139;52.018;8.552;2023-04-07T09:48:04;100574.31;;;13.92;53.65
74633;BME280;63139;52.018;8.552;2023-04-07T09:50:32;100584.75;;;13.93;53.72
74633;BME280;63139;52.018;8.552;2023-04-07T09:53:02;100581.28;;;13.93;54.33
74633;BME280;63139;52.018;8.552;2023-04-07T09:55:30;100581.16;;;14.01;53.71
74633;BME280;63139;52.018;8.552;2023-04-07T09:57:59;100584.88;;;14.21;54.21
74633;BME280;63139;52.018;8.552;2023-04-07T10:00:28;100585.59;;;14.30;53.84
74633;BME280;63139;52.018;8.552;2023-04-07T10:02:56;100583.91;;;14.08;53.04
74633;BME280;63139;52.018;8.552;2023-04-07T10:05:25;100584.19;;;13.98;53.13
74633;BME280;63139;52.018;8.552;2023-04-07T10:07:53;100582.84;;;13.87;53.75
74633;BME280;63139;52.018;8.552;2023-04-07T10:10:23;100593.25;;;13.68;53.21
74633;BME280;63139;52.018;8.552;2023-04-07T10:12:53;100589.28;;;13.78;53.33
74633;BME280;63139;52.018;8.552;2023-04-07T10:15:23;100599.00;;;13.71;53.94
74633;BME280;63139;52.018;8.552;2023-04-07T10:17:52;100595.91;;;13.53;52.67
74633;BME280;63139;52.018;8.552;2023-04-07T10:20:22;100598.66;;;13.45;53.40
74633;BME280;63139;52.018;8.552;2023-04-07T10:22:51;100604.63;;;13.32;54.06
74633;BME280;63139;52.018;8.552;2023-04-07T10:25:23;100606.81;;;13.29;54.65
74633;BME280;63139;52.018;8.552;2023-04-07T10:27:54;100600.81;;;13.12;53.55
74633;BME280;63139;52.018;8.552;2023-04-07T10:30:24;100603.00;;;12.94;54.41
74633;BME280;63139;52.018;8.552;2023-04-07T10:32:53;100598.56;;;12.86;55.24
74633;BME280;63139;52.018;8.552;2023-04-07T10:35:22;100606.44;;;12.79;55.26
74633;BME280;63139;52.018;8.552;2023-04-07T10:38:10;100602.38;;;12.69;54.43
74633;BME280;63139;52.018;8.552;2023-04-07T10:40:41;100606.41;;;12.65;54.90
74633;BME280;63139;52.018;8.552;2023-04-07T10:43:09;100615.59;;;12.54;55.31
74633;BME280;63139;52.018;8.552;2023-04-07T10:45:54;100603.88;;;12.49;55.62
74633;BME280;63139;52.018;8.552;2023-04-07T10:48:28;100613.00;;;12.69;55.31
74633;BME280;63139;52.018;8.552;2023-04-07T10:51:15;100610.59;;;12.59;54.79
74633;BME280;63139;52.018;8.552;2023-04-07T10:54:18;100612.44;;;12.59;54.83
74633;BME280;63139;52.018;8.552;2023-04-07T10:57:09;100609.13;;;12.57;55.43
74633;BME280;63139;52.018;8.552;2023-04-07T10:59:39;100616.53;;;12.84;55.60
74633;BME280;63139;52.018;8.552;2023-04-07T11:02:31;100611.78;;;12.94;54.15
74633;BME280;63139;52.018;8.552;2023-04-07T11:04:59;100618.31;;;13.06;54.80
74633;BME280;63139;52.018;8.552;2023-04-07T11:07:46;100617.63;;;12.90;53.85
74633;BME280;63139;52.018;8.552;2023-04-07T11:10:15;100619.56;;;12.81;55.21
74633;BME280;63139;52.018;8.552;2023-04-07T11:12:59;100615.66;;;12.69;54.61
74633;BME280;63139;52.018;8.552;2023-04-07T11:15:27;100619.97;;;12.70;54.63
74633;BME280;63139;52.018;8.552;2023-04-07T11:18:09;100615.75;;;12.75;54.49
74633;BME280;63139;52.018;8.552;2023-04-07T11:20:40;100614.13;;;12.74;54.32
74633;BME280;63139;52.018;8.552;2023-04-07T11:23:11;100619.44;;;12.74;54.79
74633;BME280;63139;52.018;8.552;2023-04-07T11:25:41;100618.78;;;12.72;54.58
74633;BME280;63139;52.018;8.552;2023-04-07T11:28:11;100629.56;;;12.94;53.33
74633;BME280;63139;52.018;8.552;2023-04-07T11:30:45;100623.50;;;13.23;53.49
74633;BME280;63139;52.018;8.552;2023-04-07T11:33:15;100621.03;;;13.36;53.00
74633;BME280;63139;52.018;8.552;2023-04-07T11:35:48;100618.78;;;13.62;52.58
74633;BME280;63139;52.018;8.552;2023-04-07T11:38:17;100620.19;;;13.94;51.66
74633;BME280;63139;52.018;8.552;2023-04-07T11:40:45;100615.78;;;13.86;52.21
74633;BME280;63139;52.018;8.552;2023-04-07T11:43:19;100610.41;;;13.65;49.00
74633;BME280;63139;52.018;8.552;2023-04-07T11:46:05;100625.09;;;13.61;47.68
74633;BME280;63139;52.018;8.552;2023-04-07T11:48:34;100619.38;;;13.79;50.90
74633;BME280;63139;52.018;8.552;2023-04-07T11:51:03;100624.41;;;13.88;50.70
74633;BME280;63139;52.018;8.552;2023-04-07T11:53:33;100619.16;;;13.95;49.75
74633;BME280;63139;52.018;8.552;2023-04-07T11:56:04;100618.41;;;14.01;49.67
74633;BME280;63139;52.018;8.552;2023-04-07T11:58:36;100622.25;;;14.13;49.64
74633;BME280;63139;52.018;8.552;2023-04-07T12:01:05;100619.41;;;14.15;48.80
74633;BME280;63139;52.018;8.552;2023-04-07T12:03:35;100626.97;;;14.32;48.39
74633;BME280;63139;52.018;8.552;2023-04-07T12:06:04;100631.09;;;14.50;47.80
74633;BME280;63139;52.018;8.552;2023-04-07T12:08:36;100633.63;;;14.58;46.73
74633;BME280;63139;52.018;8.552;2023-04-07T12:11:04;100637.44;;;14.70;47.39
74633;BME280;63139;52.018;8.552;2023-04-07T12:13:33;100635.22;;;14.73;45.90
74633;BME280;63139;52.018;8.552;2023-04-07T12:16:02;100634.44;;;14.80;45.63
74633;BME280;63139;52.018;8.552;2023-04-07T12:18:30;100625.53;;;14.94;44.98
74633;BME280;63139;52.018;8.552;2023-04-07T12:20:59;100625.94;;;15.19;45.16
74633;BME280;63139;52.018;8.552;2023-04-07T12:23:26;100640.28;;;15.45;46.03
74633;BME280;63139;52.018;8.552;2023-04-07T12:25:54;100639.56;;;15.58;45.17
74633;BME280;63139;52.018;8.552;2023-04-07T12:28:22;100633.72;;;15.76;46.05
74633;BME280;63139;52.018;8.552;2023-04-07T12:30:50;100639.13;;;15.96;46.60
74633;BME280;63139;52.018;8.552;2023-04-07T12:33:19;100637.97;;;16.18;46.39
74633;BME280;63139;52.018;8.552;2023-04-07T12:35:47;100641.66;;;16.17;44.76
74633;BME280;63139;52.018;8.552;2023-04-07T12:38:16;100644.16;;;16.18;43.92
74633;BME280;63139;52.018;8.552;2023-04-07T12:40:43;100640.25;;;16.14;43.77
74633;BME280;63139;52.018;8.552;2023-04-07T12:43:11;100647.84;;;16.17;44.89
74633;BME280;63139;52.018;8.552;2023-04-07T12:45:39;100644.38;;;16.23;44.43
74633;BME280;63139;52.018;8.552;2023-04-07T12:48:07;100650.97;;;16.27;44.96
74633;BME280;63139;52.018;8.552;2023-04-07T12:50:37;100646.09;;;16.44;44.04
74633;BME280;63139;52.018;8.552;2023-04-07T12:53:05;100652.25;;;16.45;43.96
74633;BME280;63139;52.018;8.552;2023-04-07T12:55:35;100648.53;;;16.46;44.56
74633;BME280;63139;52.018;8.552;2023-04-07T12:58:03;100648.75;;;16.44;43.24
74633;BME280;63139;52.018;8.552;2023-04-07T13:00:31;100644.06;;;16.59;43.46
74633;BME280;63139;52.018;8.552;2023-04-07T13:02:59;100644.69;;;16.68;43.46
74633;BME280;63139;52.018;8.552;2023-04-07T13:05:28;100643.03;;;16.60;43.65
74633;BME280;63139;52.018;8.552;2023-04-07T13:08:00;100641.13;;;16.35;43.90
74633;BME280;63139;52.018;8.552;2023-04-07T13:10:31;100648.25;;;16.08;44.25
74633;BME280;63139;52.018;8.552;2023-04-07T13:12:59;100647.13;;;15.89;44.91